sensor_id;sensor_type;location;lat;lon;timestamp;P1;durP1;ratioP1;P2;durP2;ratioP2
65461;SDS011;53236;43.666;18.444;2023-06-05T00:01:36;13.30;;;8.07;;
65461;SDS011;53236;43.666;18.444;2023-06-05T00:04:02;14.37;;;9.07;;
65461;SDS011;53236;43.666;18.444;2023-06-05T00:06:29;14.10;;;9.20;;
65461;SDS011;53236;43.666;18.444;2023-06-05T00:08:56;13.03;;;9.13;;
65461;SDS011;53236;43.666;18.444;2023-06-05T00:11:22;12.27;;;9.37;;
65461;SDS011;53236;43.666;18.444;2023-06-05T00:13:48;12.07;;;8.93;;
65461;SDS011;53236;43.666;18.444;2023-06-05T00:16:15;15.30;;;9.03;;
65461;SDS011;53236;43.666;18.444;2023-06-05T00:18:41;12.30;;;8.70;;
65461;SDS011;53236;43.666;18.444;2023-06-05T00:21:09;16.70;;;9.60;;
65461;SDS011;53236;43.666;18.444;2023-06-05T00:23:35;13.03;;;9.40;;
65461;SDS011;53236;43.666;18.444;2023-06-05T00:26:01;12.40;;;8.93;;
65461;SDS011;53236;43.666;18.444;2023-06-05T00:28:27;13.17;;;10.20;;
65461;SDS011;53236;43.666;18.444;2023-06-05T00:30:52;11.77;;;9.23;;
65461;SDS011;53236;43.666;18.444;2023-06-05T00:33:18;20.90;;;10.30;;
65461;SDS011;53236;43.666;18.444;2023-06-05T00:35:44;12.60;;;9.23;;
65461;SDS011;53236;43.666;18.444;2023-06-05T00:38:10;14.73;;;9.40;;
65461;SDS011;53236;43.666;18.444;2023-06-05T00:40:36;14.30;;;8.77;;
65461;SDS011;53236;43.666;18.444;2023-06-05T00:43:01;12.80;;;8.63;;
65461;SDS011;53236;43.666;18.444;2023-06-05T00:45:27;11.73;;;8.60;;
65461;SDS011;53236;43.666;18.444;2023-06-05T00:47:53;17.53;;;9.47;;
65461;SDS011;53236;43.666;18.444;2023-06-05T00:50:20;13.83;;;10.17;;
65461;SDS011;53236;43.666;18.444;2023-06-05T00:52:50;14.97;;;10.83;;
65461;SDS011;53236;43.666;18.444;2023-06-05T00:55:16;17.73;;;9.77;;
65461;SDS011;53236;43.666;18.444;2023-06-05T00:57:43;16.90;;;9.83;;
65461;SDS011;53236;43.666;18.444;2023-06-05T01:00:09;14.37;;;9.30;;
65461;SDS011;53236;43.666;18.444;2023-06-05T01:02:39;15.23;;;9.50;;
65461;SDS011;53236;43.666;18.444;2023-06-05T01:05:06;12.70;;;9.30;;
65461;SDS011;53236;43.666;18.444;2023-06-05T01:07:33;11.10;;;8.30;;
65461;SDS011;53236;43.666;18.444;2023-06-05T01:10:00;12.70;;;8.90;;
65461;SDS011;53236;43.666;18.444;2023-06-05T01:15:22;15.97;;;8.67;;
65461;SDS011;53236;43.666;18.444;2023-06-05T01:17:57;11.90;;;8.60;;
65461;SDS011;53236;43.666;18.444;2023-06-05T01:23:00;9.48;;;7.97;;
65461;SDS011;53236;43.666;18.444;2023-06-05T01:25:32;11.23;;;8.20;;
65461;SDS011;53236;43.666;18.444;2023-06-05T01:28:00;7.93;;;6.57;;
65461;SDS011;53236;43.666;18.444;2023-06-05T01:35:38;8.33;;;6.57;;
65461;SDS011;53236;43.666;18.444;2023-06-05T01:38:06;14.77;;;7.50;;
65461;SDS011;53236;43.666;18.444;2023-06-05T01:40:35;22.40;;;9.93;;
65461;SDS011;53236;43.666;18.444;2023-06-05T01:43:01;20.00;;;10.57;;
65461;SDS011;53236;43.666;18.444;2023-06-05T01:45:29;27.10;;;11.53;;
65461;SDS011;53236;43.666;18.444;2023-06-05T01:47:55;17.70;;;10.50;;
65461;SDS011;53236;43.666;18.444;2023-06-05T01:50:22;17.17;;;9.13;;
65461;SDS011;53236;43.666;18.444;2023-06-05T01:52:48;15.57;;;9.37;;
65461;SDS011;53236;43.666;18.444;2023-06-05T01:55:21;12.20;;;8.83;;
65461;SDS011;53236;43.666;18.444;2023-06-05T01:57:51;17.13;;;9.17;;
65461;SDS011;53236;43.666;18.444;2023-06-05T02:00:17;10.93;;;8.50;;
65461;SDS011;53236;43.666;18.444;2023-06-05T02:02:44;17.57;;;9.50;;
65461;SDS011;53236;43.666;18.444;2023-06-05T02:05:11;12.50;;;9.30;;
65461;SDS011;53236;43.666;18.444;2023-06-05T02:07:41;13.57;;;8.60;;
65461;SDS011;53236;43.666;18.444;2023-06-05T02:10:12;12.00;;;7.87;;
65461;SDS011;53236;43.666;18.444;2023-06-05T02:12:38;13.63;;;8.93;;
65461;SDS011;53236;43.666;18.444;2023-06-05T02:15:06;11.50;;;8.80;;
65461;SDS011;53236;43.666;18.444;2023-06-05T02:17:34;11.33;;;8.97;;
65461;SDS011;53236;43.666;18.444;2023-06-05T02:20:00;12.83;;;8.00;;
65461;SDS011;53236;43.666;18.444;2023-06-05T02:22:26;11.60;;;7.93;;
65461;SDS011;53236;43.666;18.444;2023-06-05T02:24:52;17.70;;;8.17;;
65461;SDS011;53236;43.666;18.444;2023-06-05T02:27:18;10.73;;;7.63;;
65461;SDS011;53236;43.666;18.444;2023-06-05T02:29:44;8.60;;;7.50;;
65461;SDS011;53236;43.666;18.444;2023-06-05T02:32:10;11.37;;;8.10;;
65461;SDS011;53236;43.666;18.444;2023-06-05T02:34:36;9.97;;;7.00;;
65461;SDS011;53236;43.666;18.444;2023-06-05T02:37:03;11.40;;;8.30;;
65461;SDS011;53236;43.666;18.444;2023-06-05T02:39:29;11.57;;;8.70;;
65461;SDS011;53236;43.666;18.444;2023-06-05T02:41:58;14.30;;;8.90;;
65461;SDS011;53236;43.666;18.444;2023-06-05T02:44:24;10.97;;;8.40;;
65461;SDS011;53236;43.666;18.444;2023-06-05T02:46:49;17.63;;;9.70;;
65461;SDS011;53236;43.666;18.444;2023-06-05T02:49:15;11.33;;;7.93;;
65461;SDS011;53236;43.666;18.444;2023-06-05T02:51:41;13.97;;;9.03;;
65461;SDS011;53236;43.666;18.444;2023-06-05T02:54:07;12.30;;;9.13;;
65461;SDS011;53236;43.666;18.444;2023-06-05T02:56:32;13.27;;;8.70;;
65461;SDS011;53236;43.666;18.444;2023-06-05T02:58:59;13.77;;;8.67;;
65461;SDS011;53236;43.666;18.444;2023-06-05T03:01:28;11.43;;;8.50;;
65461;SDS011;53236;43.666;18.444;2023-06-05T03:03:59;14.13;;;9.07;;
65461;SDS011;53236;43.666;18.444;2023-06-05T03:06:27;12.50;;;9.73;;
65461;SDS011;53236;43.666;18.444;2023-06-05T03:08:58;11.80;;;8.73;;
65461;SDS011;53236;43.666;18.444;2023-06-05T03:11:24;15.60;;;9.20;;
65461;SDS011;53236;43.666;18.444;2023-06-05T03:13:51;11.47;;;7.50;;
65461;SDS011;53236;43.666;18.444;2023-06-05T03:16:17;11.13;;;8.57;;
65461;SDS011;53236;43.666;18.444;2023-06-05T03:18:43;10.13;;;8.30;;
65461;SDS011;53236;43.666;18.444;2023-06-05T03:21:11;8.40;;;7.10;;
65461;SDS011;53236;43.666;18.444;2023-06-05T03:23:37;9.20;;;7.07;;
65461;SDS011;53236;43.666;18.444;2023-06-05T03:26:02;13.47;;;6.93;;
65461;SDS011;53236;43.666;18.444;2023-06-05T03:28:28;8.77;;;6.70;;
65461;SDS011;53236;43.666;18.444;2023-06-05T03:30:58;9.83;;;6.90;;
65461;SDS011;53236;43.666;18.444;2023-06-05T03:33:24;21.20;;;7.63;;
65461;SDS011;53236;43.666;18.444;2023-06-05T03:35:50;9.07;;;7.23;;
65461;SDS011;53236;43.666;18.444;2023-06-05T03:38:17;9.80;;;6.97;;
65461;SDS011;53236;43.666;18.444;2023-06-05T03:40:43;9.87;;;7.73;;
65461;SDS011;53236;43.666;18.444;2023-06-05T03:43:09;9.20;;;7.33;;
65461;SDS011;53236;43.666;18.444;2023-06-05T03:45:36;12.10;;;8.10;;
65461;SDS011;53236;43.666;18.444;2023-06-05T03:48:05;18.63;;;8.03;;
65461;SDS011;53236;43.666;18.444;2023-06-05T03:50:31;10.37;;;8.30;;
65461;SDS011;53236;43.666;18.444;2023-06-05T03:53:02;11.23;;;8.50;;
65461;SDS011;53236;43.666;18.444;2023-06-05T03:55:31;13.00;;;7.77;;
65461;SDS011;53236;43.666;18.444;2023-06-05T03:58:13;10.03;;;8.00;;
65461;SDS011;53236;43.666;18.444;2023-06-05T04:00:40;11.17;;;7.50;;
65461;SDS011;53236;43.666;18.444;2023-06-05T04:03:15;10.87;;;7.60;;
65461;SDS011;53236;43.666;18.444;2023-06-05T04:05:41;9.73;;;7.50;;
65461;SDS011;53236;43.666;18.444;2023-06-05T04:08:08;10.87;;;7.30;;
65461;SDS011;53236;43.666;18.444;2023-06-05T04:10:35;9.50;;;7.50;;
65461;SDS011;53236;43.666;18.444;2023-06-05T04:13:01;9.30;;;7.20;;
65461;SDS011;53236;43.666;18.444;2023-06-05T04:15:31;9.30;;;7.10;;
65461;SDS011;53236;43.666;18.444;2023-06-05T04:17:58;10.13;;;6.97;;
65461;SDS011;53236;43.666;18.444;2023-06-05T04:20:24;9.47;;;6.93;;
65461;SDS011;53236;43.666;18.444;2023-06-05T04:22:50;9.73;;;7.40;;
65461;SDS011;53236;43.666;18.444;2023-06-05T04:25:16;9.97;;;6.53;;
65461;SDS011;53236;43.666;18.444;2023-06-05T04:27:43;8.47;;;6.20;;
65461;SDS011;53236;43.666;18.444;2023-06-05T04:30:10;8.40;;;6.50;;
65461;SDS011;53236;43.666;18.444;2023-06-05T04:32:38;8.90;;;5.70;;
65461;SDS011;53236;43.666;18.444;2023-06-05T04:35:05;8.10;;;5.77;;
65461;SDS011;53236;43.666;18.444;2023-06-05T04:37:32;7.87;;;5.87;;
65461;SDS011;53236;43.666;18.444;2023-06-05T04:39:58;11.73;;;9.00;;
65461;SDS011;53236;43.666;18.444;2023-06-05T04:42:42;14.47;;;9.77;;
65461;SDS011;53236;43.666;18.444;2023-06-05T04:45:08;10.70;;;7.53;;
65461;SDS011;53236;43.666;18.444;2023-06-05T04:47:34;10.33;;;8.47;;
65461;SDS011;53236;43.666;18.444;2023-06-05T04:50:01;10.60;;;8.83;;
65461;SDS011;53236;43.666;18.444;2023-06-05T04:52:31;11.87;;;7.37;;
65461;SDS011;53236;43.666;18.444;2023-06-05T04:54:58;24.80;;;18.90;;
65461;SDS011;53236;43.666;18.444;2023-06-05T04:57:26;19.93;;;15.53;;
65461;SDS011;53236;43.666;18.444;2023-06-05T04:59:53;8.87;;;6.97;;
65461;SDS011;53236;43.666;18.444;2023-06-05T05:02:19;11.20;;;7.77;;
65461;SDS011;53236;43.666;18.444;2023-06-05T05:04:46;12.43;;;7.87;;
65461;SDS011;53236;43.666;18.444;2023-06-05T05:07:12;13.00;;;7.97;;
65461;SDS011;53236;43.666;18.444;2023-06-05T05:09:42;14.20;;;8.33;;
65461;SDS011;53236;43.666;18.444;2023-06-05T05:12:08;8.33;;;6.40;;
65461;SDS011;53236;43.666;18.444;2023-06-05T05:14:35;8.00;;;6.00;;
65461;SDS011;53236;43.666;18.444;2023-06-05T05:17:01;11.33;;;5.90;;
65461;SDS011;53236;43.666;18.444;2023-06-05T05:19:27;9.67;;;7.27;;
65461;SDS011;53236;43.666;18.444;2023-06-05T05:21:53;10.70;;;7.03;;
65461;SDS011;53236;43.666;18.444;2023-06-05T05:24:19;10.00;;;6.97;;
65461;SDS011;53236;43.666;18.444;2023-06-05T05:26:45;9.93;;;6.67;;
65461;SDS011;53236;43.666;18.444;2023-06-05T05:29:11;11.63;;;6.43;;
65461;SDS011;53236;43.666;18.444;2023-06-05T05:31:37;8.70;;;5.50;;
65461;SDS011;53236;43.666;18.444;2023-06-05T05:34:03;8.60;;;5.20;;
65461;SDS011;53236;43.666;18.444;2023-06-05T05:36:30;9.87;;;5.70;;
65461;SDS011;53236;43.666;18.444;2023-06-05T05:38:58;12.73;;;8.20;;
65461;SDS011;53236;43.666;18.444;2023-06-05T05:41:24;9.57;;;7.03;;
65461;SDS011;53236;43.666;18.444;2023-06-05T05:43:51;9.25;;;4.95;;
65461;SDS011;53236;43.666;18.444;2023-06-05T05:46:17;6.47;;;4.95;;
65461;SDS011;53236;43.666;18.444;2023-06-05T05:48:43;5.72;;;4.15;;
65461;SDS011;53236;43.666;18.444;2023-06-05T05:51:09;5.05;;;3.53;;
65461;SDS011;53236;43.666;18.444;2023-06-05T05:53:35;6.28;;;3.88;;
65461;SDS011;53236;43.666;18.444;2023-06-05T05:56:01;5.90;;;3.63;;
65461;SDS011;53236;43.666;18.444;2023-06-05T05:58:28;4.88;;;3.65;;
65461;SDS011;53236;43.666;18.444;2023-06-05T06:00:55;5.90;;;3.47;;
65461;SDS011;53236;43.666;18.444;2023-06-05T06:03:20;4.47;;;3.40;;
65461;SDS011;53236;43.666;18.444;2023-06-05T06:05:48;5.72;;;3.88;;
65461;SDS011;53236;43.666;18.444;2023-06-05T06:08:14;5.80;;;4.13;;
65461;SDS011;53236;43.666;18.444;2023-06-05T06:10:41;5.43;;;4.38;;
65461;SDS011;53236;43.666;18.444;2023-06-05T06:13:07;10.27;;;4.40;;
65461;SDS011;53236;43.666;18.444;2023-06-05T06:15:33;7.53;;;4.72;;
65461;SDS011;53236;43.666;18.444;2023-06-05T06:17:59;7.88;;;5.13;;
65461;SDS011;53236;43.666;18.444;2023-06-05T06:20:27;5.78;;;4.28;;
65461;SDS011;53236;43.666;18.444;2023-06-05T06:22:53;9.40;;;4.88;;
65461;SDS011;53236;43.666;18.444;2023-06-05T06:25:20;7.03;;;4.45;;
65461;SDS011;53236;43.666;18.444;2023-06-05T06:27:50;7.05;;;4.63;;
65461;SDS011;53236;43.666;18.444;2023-06-05T06:30:18;6.80;;;4.35;;
65461;SDS011;53236;43.666;18.444;2023-06-05T06:32:45;6.28;;;4.32;;
65461;SDS011;53236;43.666;18.444;2023-06-05T06:35:10;6.00;;;4.30;;
65461;SDS011;53236;43.666;18.444;2023-06-05T06:37:38;6.10;;;4.43;;
65461;SDS011;53236;43.666;18.444;2023-06-05T06:40:07;13.00;;;6.95;;
65461;SDS011;53236;43.666;18.444;2023-06-05T06:42:35;7.35;;;5.95;;
65461;SDS011;53236;43.666;18.444;2023-06-05T06:45:01;8.48;;;4.95;;
65461;SDS011;53236;43.666;18.444;2023-06-05T06:47:28;9.18;;;5.90;;
65461;SDS011;53236;43.666;18.444;2023-06-05T06:49:54;6.30;;;5.47;;
65461;SDS011;53236;43.666;18.444;2023-06-05T06:52:20;6.20;;;4.40;;
65461;SDS011;53236;43.666;18.444;2023-06-05T06:54:46;8.20;;;4.57;;
65461;SDS011;53236;43.666;18.444;2023-06-05T06:57:12;6.75;;;4.13;;
65461;SDS011;53236;43.666;18.444;2023-06-05T06:59:38;8.77;;;4.65;;
65461;SDS011;53236;43.666;18.444;2023-06-05T07:04:39;15.07;;;4.43;;
65461;SDS011;53236;43.666;18.444;2023-06-05T07:07:12;5.10;;;3.17;;
65461;SDS011;53236;43.666;18.444;2023-06-05T07:09:42;7.72;;;3.50;;
65461;SDS011;53236;43.666;18.444;2023-06-05T07:12:12;7.88;;;3.78;;
65461;SDS011;53236;43.666;18.444;2023-06-05T07:14:38;5.07;;;3.40;;
65461;SDS011;53236;43.666;18.444;2023-06-05T07:17:05;5.97;;;3.35;;
65461;SDS011;53236;43.666;18.444;2023-06-05T07:19:31;4.90;;;3.00;;
65461;SDS011;53236;43.666;18.444;2023-06-05T07:21:58;4.97;;;3.30;;
65461;SDS011;53236;43.666;18.444;2023-06-05T07:24:25;5.22;;;3.70;;
65461;SDS011;53236;43.666;18.444;2023-06-05T07:26:56;4.45;;;3.17;;
65461;SDS011;53236;43.666;18.444;2023-06-05T07:29:24;5.38;;;2.70;;
65461;SDS011;53236;43.666;18.444;2023-06-05T07:31:52;8.85;;;2.97;;
65461;SDS011;53236;43.666;18.444;2023-06-05T07:34:19;4.32;;;2.60;;
65461;SDS011;53236;43.666;18.444;2023-06-05T07:36:47;6.00;;;2.95;;
65461;SDS011;53236;43.666;18.444;2023-06-05T07:39:14;6.20;;;3.22;;
65461;SDS011;53236;43.666;18.444;2023-06-05T07:41:40;7.10;;;3.40;;
65461;SDS011;53236;43.666;18.444;2023-06-05T07:44:10;4.28;;;2.40;;
65461;SDS011;53236;43.666;18.444;2023-06-05T07:46:40;4.75;;;2.58;;
65461;SDS011;53236;43.666;18.444;2023-06-05T07:49:10;5.40;;;2.53;;
65461;SDS011;53236;43.666;18.444;2023-06-05T07:51:36;5.78;;;2.53;;
65461;SDS011;53236;43.666;18.444;2023-06-05T07:54:20;4.18;;;2.45;;
65461;SDS011;53236;43.666;18.444;2023-06-05T07:59:16;8.20;;;2.58;;
65461;SDS011;53236;43.666;18.444;2023-06-05T08:01:47;6.80;;;3.53;;
65461;SDS011;53236;43.666;18.444;2023-06-05T08:04:14;4.75;;;3.22;;
65461;SDS011;53236;43.666;18.444;2023-06-05T08:06:41;6.38;;;2.58;;
65461;SDS011;53236;43.666;18.444;2023-06-05T08:09:07;4.65;;;3.22;;
65461;SDS011;53236;43.666;18.444;2023-06-05T08:11:35;3.15;;;2.20;;
65461;SDS011;53236;43.666;18.444;2023-06-05T08:14:06;3.45;;;2.10;;
65461;SDS011;53236;43.666;18.444;2023-06-05T08:16:33;3.97;;;2.13;;
65461;SDS011;53236;43.666;18.444;2023-06-05T08:18:59;3.25;;;2.22;;
65461;SDS011;53236;43.666;18.444;2023-06-05T08:21:25;5.70;;;2.38;;
65461;SDS011;53236;43.666;18.444;2023-06-05T08:23:51;4.68;;;2.30;;
65461;SDS011;53236;43.666;18.444;2023-06-05T08:26:20;10.07;;;4.53;;
65461;SDS011;53236;43.666;18.444;2023-06-05T08:28:47;4.65;;;2.50;;
65461;SDS011;53236;43.666;18.444;2023-06-05T08:31:14;5.75;;;2.90;;
65461;SDS011;53236;43.666;18.444;2023-06-05T08:33:41;4.18;;;2.47;;
65461;SDS011;53236;43.666;18.444;2023-06-05T08:36:07;5.60;;;3.53;;
65461;SDS011;53236;43.666;18.444;2023-06-05T08:38:33;6.28;;;3.75;;
65461;SDS011;53236;43.666;18.444;2023-06-05T08:41:04;6.55;;;3.35;;
65461;SDS011;53236;43.666;18.444;2023-06-05T08:43:36;7.90;;;4.10;;
65461;SDS011;53236;43.666;18.444;2023-06-05T08:46:03;7.68;;;2.95;;
65461;SDS011;53236;43.666;18.444;2023-06-05T08:48:36;3.92;;;2.72;;
65461;SDS011;53236;43.666;18.444;2023-06-05T08:51:06;5.38;;;2.97;;
65461;SDS011;53236;43.666;18.444;2023-06-05T08:53:35;9.30;;;3.92;;
65461;SDS011;53236;43.666;18.444;2023-06-05T08:56:03;9.90;;;4.90;;
65461;SDS011;53236;43.666;18.444;2023-06-05T08:58:30;4.60;;;3.17;;
65461;SDS011;53236;43.666;18.444;2023-06-05T09:00:57;5.20;;;3.47;;
65461;SDS011;53236;43.666;18.444;2023-06-05T09:03:23;5.75;;;3.60;;
65461;SDS011;53236;43.666;18.444;2023-06-05T09:05:50;6.45;;;4.28;;
65461;SDS011;53236;43.666;18.444;2023-06-05T09:08:17;9.63;;;4.97;;
65461;SDS011;53236;43.666;18.444;2023-06-05T09:10:53;7.93;;;4.25;;
65461;SDS011;53236;43.666;18.444;2023-06-05T09:13:19;8.23;;;4.70;;
65461;SDS011;53236;43.666;18.444;2023-06-05T09:15:49;7.28;;;5.32;;
65461;SDS011;53236;43.666;18.444;2023-06-05T09:18:15;7.13;;;4.50;;
65461;SDS011;53236;43.666;18.444;2023-06-05T09:20:42;6.18;;;3.60;;
65461;SDS011;53236;43.666;18.444;2023-06-05T09:23:31;7.47;;;3.70;;
65461;SDS011;53236;43.666;18.444;2023-06-05T09:25:57;7.00;;;3.63;;
65461;SDS011;53236;43.666;18.444;2023-06-05T09:28:24;4.53;;;3.67;;
65461;SDS011;53236;43.666;18.444;2023-06-05T09:30:55;6.18;;;3.80;;
65461;SDS011;53236;43.666;18.444;2023-06-05T09:33:22;5.25;;;4.05;;
65461;SDS011;53236;43.666;18.444;2023-06-05T09:38:30;6.13;;;4.25;;
65461;SDS011;53236;43.666;18.444;2023-06-05T09:41:06;5.03;;;3.13;;
65461;SDS011;53236;43.666;18.444;2023-06-05T09:43:32;3.75;;;2.97;;
65461;SDS011;53236;43.666;18.444;2023-06-05T09:46:00;4.07;;;2.65;;
65461;SDS011;53236;43.666;18.444;2023-06-05T09:48:38;5.03;;;3.65;;
65461;SDS011;53236;43.666;18.444;2023-06-05T09:51:11;23.33;;;17.05;;
65461;SDS011;53236;43.666;18.444;2023-06-05T09:53:41;11.20;;;8.63;;
65461;SDS011;53236;43.666;18.444;2023-06-05T09:56:12;4.63;;;3.40;;
65461;SDS011;53236;43.666;18.444;2023-06-05T09:58:40;3.40;;;2.42;;
65461;SDS011;53236;43.666;18.444;2023-06-05T10:01:09;4.07;;;2.67;;
65461;SDS011;53236;43.666;18.444;2023-06-05T10:03:37;6.20;;;3.13;;
65461;SDS011;53236;43.666;18.444;2023-06-05T10:06:07;3.00;;;1.90;;
65461;SDS011;53236;43.666;18.444;2023-06-05T10:08:33;3.28;;;2.00;;
65461;SDS011;53236;43.666;18.444;2023-06-05T10:11:00;3.40;;;1.92;;
65461;SDS011;53236;43.666;18.444;2023-06-05T10:13:27;3.00;;;1.90;;
65461;SDS011;53236;43.666;18.444;2023-06-05T10:15:54;3.65;;;2.35;;
65461;SDS011;53236;43.666;18.444;2023-06-05T10:18:22;3.13;;;2.08;;
65461;SDS011;53236;43.666;18.444;2023-06-05T10:20:47;4.00;;;2.63;;
65461;SDS011;53236;43.666;18.444;2023-06-05T10:23:17;3.42;;;2.28;;
65461;SDS011;53236;43.666;18.444;2023-06-05T10:25:45;5.30;;;1.98;;
65461;SDS011;53236;43.666;18.444;2023-06-05T10:31:05;2.85;;;1.98;;
65461;SDS011;53236;43.666;18.444;2023-06-05T10:38:54;2.53;;;1.77;;
65461;SDS011;53236;43.666;18.444;2023-06-05T10:41:20;2.20;;;1.50;;
65461;SDS011;53236;43.666;18.444;2023-06-05T10:43:48;3.50;;;1.77;;
65461;SDS011;53236;43.666;18.444;2023-06-05T10:49:10;5.20;;;1.88;;
65461;SDS011;53236;43.666;18.444;2023-06-05T10:51:42;3.60;;;1.60;;
65461;SDS011;53236;43.666;18.444;2023-06-05T10:54:10;3.38;;;1.52;;
65461;SDS011;53236;43.666;18.444;2023-06-05T11:15:10;3.03;;;1.70;;
65461;SDS011;53236;43.666;18.444;2023-06-05T11:17:55;3.75;;;1.80;;
65461;SDS011;53236;43.666;18.444;2023-06-05T11:27:49;5.13;;;1.95;;
65461;SDS011;53236;43.666;18.444;2023-06-05T11:30:17;4.40;;;2.10;;
65461;SDS011;53236;43.666;18.444;2023-06-05T11:32:44;5.32;;;2.33;;
65461;SDS011;53236;43.666;18.444;2023-06-05T11:35:11;4.35;;;1.90;;
65461;SDS011;53236;43.666;18.444;2023-06-05T11:37:37;2.80;;;1.92;;
65461;SDS011;53236;43.666;18.444;2023-06-05T11:40:06;2.88;;;1.60;;
65461;SDS011;53236;43.666;18.444;2023-06-05T11:42:36;3.33;;;1.80;;
65461;SDS011;53236;43.666;18.444;2023-06-05T11:45:10;3.60;;;2.00;;
65461;SDS011;53236;43.666;18.444;2023-06-05T11:47:36;2.67;;;1.60;;
65461;SDS011;53236;43.666;18.444;2023-06-05T11:50:09;5.38;;;2.40;;
65461;SDS011;53236;43.666;18.444;2023-06-05T11:52:36;6.75;;;3.15;;
65461;SDS011;53236;43.666;18.444;2023-06-05T11:55:18;3.80;;;2.60;;
65461;SDS011;53236;43.666;18.444;2023-06-05T11:57:47;4.25;;;2.08;;
65461;SDS011;53236;43.666;18.444;2023-06-05T12:00:13;3.83;;;2.30;;
65461;SDS011;53236;43.666;18.444;2023-06-05T12:02:42;3.42;;;1.80;;
65461;SDS011;53236;43.666;18.444;2023-06-05T12:05:09;4.00;;;1.98;;
65461;SDS011;53236;43.666;18.444;2023-06-05T12:07:35;2.90;;;1.70;;
65461;SDS011;53236;43.666;18.444;2023-06-05T12:10:05;5.68;;;2.10;;
65461;SDS011;53236;43.666;18.444;2023-06-05T12:12:36;6.30;;;1.98;;
65461;SDS011;53236;43.666;18.444;2023-06-05T12:15:15;3.95;;;1.85;;
65461;SDS011;53236;43.666;18.444;2023-06-05T12:17:49;4.10;;;2.13;;
65461;SDS011;53236;43.666;18.444;2023-06-05T12:20:19;3.35;;;2.13;;
65461;SDS011;53236;43.666;18.444;2023-06-05T12:22:45;4.18;;;2.00;;
65461;SDS011;53236;43.666;18.444;2023-06-05T12:25:21;3.80;;;2.35;;
65461;SDS011;53236;43.666;18.444;2023-06-05T12:27:47;3.33;;;2.60;;
65461;SDS011;53236;43.666;18.444;2023-06-05T12:30:14;4.03;;;2.67;;
65461;SDS011;53236;43.666;18.444;2023-06-05T12:32:44;5.05;;;2.25;;
65461;SDS011;53236;43.666;18.444;2023-06-05T12:35:22;4.13;;;2.20;;
65461;SDS011;53236;43.666;18.444;2023-06-05T12:37:49;5.85;;;2.33;;
65461;SDS011;53236;43.666;18.444;2023-06-05T12:40:15;5.32;;;2.10;;
65461;SDS011;53236;43.666;18.444;2023-06-05T12:42:46;2.75;;;2.03;;
65461;SDS011;53236;43.666;18.444;2023-06-05T12:45:13;4.90;;;2.50;;
65461;SDS011;53236;43.666;18.444;2023-06-05T12:47:40;3.08;;;2.25;;
65461;SDS011;53236;43.666;18.444;2023-06-05T12:50:07;3.60;;;2.10;;
65461;SDS011;53236;43.666;18.444;2023-06-05T12:52:37;4.10;;;2.53;;
65461;SDS011;53236;43.666;18.444;2023-06-05T12:55:06;4.82;;;2.50;;
65461;SDS011;53236;43.666;18.444;2023-06-05T12:57:33;3.80;;;2.50;;
65461;SDS011;53236;43.666;18.444;2023-06-05T13:00:00;4.60;;;2.90;;
65461;SDS011;53236;43.666;18.444;2023-06-05T13:02:40;6.03;;;2.63;;
65461;SDS011;53236;43.666;18.444;2023-06-05T13:05:10;3.95;;;2.40;;
65461;SDS011;53236;43.666;18.444;2023-06-05T13:07:37;5.15;;;2.85;;
65461;SDS011;53236;43.666;18.444;2023-06-05T13:10:07;5.38;;;2.58;;
65461;SDS011;53236;43.666;18.444;2023-06-05T13:12:33;3.85;;;2.67;;
65461;SDS011;53236;43.666;18.444;2023-06-05T13:14:59;3.70;;;2.13;;
65461;SDS011;53236;43.666;18.444;2023-06-05T13:17:27;4.15;;;2.42;;
65461;SDS011;53236;43.666;18.444;2023-06-05T13:19:55;5.68;;;2.58;;
65461;SDS011;53236;43.666;18.444;2023-06-05T13:22:21;3.53;;;2.25;;
65461;SDS011;53236;43.666;18.444;2023-06-05T13:24:46;5.68;;;2.72;;
65461;SDS011;53236;43.666;18.444;2023-06-05T13:27:14;4.75;;;2.13;;
65461;SDS011;53236;43.666;18.444;2023-06-05T13:29:41;4.32;;;2.53;;
65461;SDS011;53236;43.666;18.444;2023-06-05T13:32:07;4.22;;;2.38;;
65461;SDS011;53236;43.666;18.444;2023-06-05T13:34:33;3.90;;;1.95;;
65461;SDS011;53236;43.666;18.444;2023-06-05T13:36:59;4.97;;;2.30;;
65461;SDS011;53236;43.666;18.444;2023-06-05T13:39:24;4.38;;;2.40;;
65461;SDS011;53236;43.666;18.444;2023-06-05T13:41:50;5.95;;;2.50;;
65461;SDS011;53236;43.666;18.444;2023-06-05T13:44:16;3.22;;;1.98;;
65461;SDS011;53236;43.666;18.444;2023-06-05T13:46:41;3.25;;;2.05;;
65461;SDS011;53236;43.666;18.444;2023-06-05T13:49:09;5.40;;;2.53;;
65461;SDS011;53236;43.666;18.444;2023-06-05T13:51:35;3.38;;;2.13;;
65461;SDS011;53236;43.666;18.444;2023-06-05T13:54:03;6.75;;;1.80;;
65461;SDS011;53236;43.666;18.444;2023-06-05T13:56:29;3.78;;;2.15;;
65461;SDS011;53236;43.666;18.444;2023-06-05T13:58:55;4.10;;;2.40;;
65461;SDS011;53236;43.666;18.444;2023-06-05T14:01:22;7.60;;;2.42;;
65461;SDS011;53236;43.666;18.444;2023-06-05T14:03:48;5.15;;;2.30;;
65461;SDS011;53236;43.666;18.444;2023-06-05T14:06:15;8.02;;;5.68;;
65461;SDS011;53236;43.666;18.444;2023-06-05T14:08:41;3.72;;;2.38;;
65461;SDS011;53236;43.666;18.444;2023-06-05T14:11:08;7.07;;;2.20;;
65461;SDS011;53236;43.666;18.444;2023-06-05T14:13:34;3.80;;;2.30;;
65461;SDS011;53236;43.666;18.444;2023-06-05T14:16:01;5.30;;;2.63;;
65461;SDS011;53236;43.666;18.444;2023-06-05T14:18:28;4.60;;;2.83;;
65461;SDS011;53236;43.666;18.444;2023-06-05T14:20:54;5.60;;;3.33;;
65461;SDS011;53236;43.666;18.444;2023-06-05T14:23:20;4.38;;;2.53;;
65461;SDS011;53236;43.666;18.444;2023-06-05T14:25:48;4.90;;;2.33;;
65461;SDS011;53236;43.666;18.444;2023-06-05T14:28:14;7.95;;;4.95;;
65461;SDS011;53236;43.666;18.444;2023-06-05T14:30:40;5.93;;;3.15;;
65461;SDS011;53236;43.666;18.444;2023-06-05T14:33:06;4.65;;;2.80;;
65461;SDS011;53236;43.666;18.444;2023-06-05T14:35:32;5.40;;;2.50;;
65461;SDS011;53236;43.666;18.444;2023-06-05T14:37:57;4.22;;;2.70;;
65461;SDS011;53236;43.666;18.444;2023-06-05T14:40:24;5.07;;;3.00;;
65461;SDS011;53236;43.666;18.444;2023-06-05T14:42:50;5.50;;;3.28;;
65461;SDS011;53236;43.666;18.444;2023-06-05T14:45:16;4.40;;;3.10;;
65461;SDS011;53236;43.666;18.444;2023-06-05T14:47:41;5.97;;;4.03;;
65461;SDS011;53236;43.666;18.444;2023-06-05T14:50:09;6.40;;;3.70;;
65461;SDS011;53236;43.666;18.444;2023-06-05T14:52:35;7.82;;;5.25;;
65461;SDS011;53236;43.666;18.444;2023-06-05T14:55:04;12.68;;;4.95;;
65461;SDS011;53236;43.666;18.444;2023-06-05T14:57:30;12.13;;;5.05;;
65461;SDS011;53236;43.666;18.444;2023-06-05T14:59:55;4.63;;;2.85;;
65461;SDS011;53236;43.666;18.444;2023-06-05T15:02:21;8.25;;;4.13;;
65461;SDS011;53236;43.666;18.444;2023-06-05T15:04:50;6.60;;;3.58;;
65461;SDS011;53236;43.666;18.444;2023-06-05T15:07:18;5.95;;;2.92;;
65461;SDS011;53236;43.666;18.444;2023-06-05T15:09:47;7.32;;;3.25;;
65461;SDS011;53236;43.666;18.444;2023-06-05T15:12:13;4.63;;;3.17;;
65461;SDS011;53236;43.666;18.444;2023-06-05T15:14:39;7.13;;;3.65;;
65461;SDS011;53236;43.666;18.444;2023-06-05T15:17:05;7.45;;;3.35;;
65461;SDS011;53236;43.666;18.444;2023-06-05T15:19:33;9.18;;;3.90;;
65461;SDS011;53236;43.666;18.444;2023-06-05T15:21:59;5.47;;;3.50;;
65461;SDS011;53236;43.666;18.444;2023-06-05T15:24:26;6.22;;;3.58;;
65461;SDS011;53236;43.666;18.444;2023-06-05T15:26:52;5.88;;;4.10;;
65461;SDS011;53236;43.666;18.444;2023-06-05T15:29:18;9.05;;;4.00;;